createdAt,value
2017-09-02T00:02:04.963Z,11.60
2017-09-02T00:04:32.495Z,11.60
2017-09-02T00:07:00.087Z,11.60
2017-09-02T00:09:27.619Z,11.70
2017-09-02T00:11:55.149Z,11.70
2017-09-02T00:14:22.730Z,11.60
2017-09-02T00:16:50.268Z,11.60
2017-09-02T00:19:17.819Z,11.60
2017-09-02T00:21:45.383Z,11.60
2017-09-02T00:24:12.915Z,11.60
2017-09-02T00:26:40.466Z,11.60
2017-09-02T00:29:08.014Z,11.60
2017-09-02T00:31:35.575Z,11.70
2017-09-02T00:34:03.160Z,11.60
2017-09-02T00:36:30.692Z,11.70
2017-09-02T00:38:58.253Z,11.70
2017-09-02T00:41:25.807Z,11.80
2017-09-02T00:43:53.339Z,11.80
2017-09-02T00:46:20.895Z,11.90
2017-09-02T00:48:48.454Z,11.90
2017-09-02T00:51:16.033Z,11.90
2017-09-02T00:53:43.581Z,11.80
2017-09-02T00:56:11.097Z,11.80
2017-09-02T00:58:38.657Z,11.80
2017-09-02T01:01:06.215Z,11.70
2017-09-02T01:03:33.775Z,11.70
2017-09-02T01:06:01.339Z,11.70
2017-09-02T01:08:28.867Z,11.70
2017-09-02T01:10:56.831Z,11.60
2017-09-02T01:13:24.389Z,11.40
2017-09-02T01:15:51.927Z,11.30
2017-09-02T01:18:19.464Z,11.30
2017-09-02T01:20:51.803Z,11.30
2017-09-02T01:23:19.376Z,11.20
2017-09-02T01:25:46.927Z,11.10
2017-09-02T01:28:14.763Z,11.00
2017-09-02T01:30:42.304Z,11.00
2017-09-02T01:33:09.922Z,11.00
2017-09-02T01:35:37.467Z,11.00
2017-09-02T01:38:04.999Z,11.00
2017-09-02T01:40:32.860Z,11.00
2017-09-02T01:43:00.395Z,11.10
2017-09-02T01:45:27.934Z,11.20
2017-09-02T01:47:55.483Z,11.10
2017-09-02T01:50:23.043Z,11.20
2017-09-02T01:52:50.631Z,11.30
2017-09-02T01:55:18.165Z,11.30
2017-09-02T01:57:45.707Z,11.30
2017-09-02T02:00:13.258Z,11.40
2017-09-02T02:02:40.803Z,11.40
2017-09-02T02:05:08.411Z,11.40
2017-09-02T02:07:35.944Z,11.40
2017-09-02T02:10:03.497Z,11.40
2017-09-02T02:12:31.025Z,11.40
2017-09-02T02:14:58.587Z,11.40
2017-09-02T02:17:26.162Z,11.40
2017-09-02T02:19:53.676Z,11.30
2017-09-02T02:22:21.277Z,11.20
2017-09-02T02:24:48.838Z,11.20
2017-09-02T02:27:16.379Z,11.20
2017-09-02T02:29:43.927Z,11.10
2017-09-02T02:32:11.468Z,11.00
2017-09-02T02:34:39.026Z,11.00
2017-09-02T02:37:07.330Z,10.70
2017-09-02T02:39:34.863Z,10.60
2017-09-02T02:42:03.172Z,10.70
2017-09-02T02:44:30.745Z,10.70
2017-09-02T02:46:58.307Z,10.70
2017-09-02T02:49:25.862Z,10.80
2017-09-02T02:51:53.401Z,10.80
2017-09-02T02:54:20.963Z,10.80
2017-09-02T02:56:48.511Z,10.80
2017-09-02T02:59:16.046Z,10.80
2017-09-02T03:01:43.609Z,10.80
2017-09-02T03:04:11.148Z,10.90
2017-09-02T03:06:38.692Z,10.90
2017-09-02T03:09:06.234Z,10.90
2017-09-02T03:11:34.101Z,10.90
2017-09-02T03:14:01.614Z,10.90
2017-09-02T03:16:29.930Z,10.90
2017-09-02T03:18:57.474Z,10.90
2017-09-02T03:21:25.009Z,10.80
2017-09-02T03:23:52.565Z,10.90
2017-09-02T03:26:20.101Z,10.80
2017-09-02T03:28:47.944Z,10.80
2017-09-02T03:31:15.480Z,10.80
2017-09-02T03:33:43.019Z,10.70
2017-09-02T03:36:10.569Z,10.60
2017-09-02T03:38:38.120Z,10.60
2017-09-02T03:41:06.432Z,10.40
2017-09-02T03:43:33.963Z,10.40
2017-09-02T03:46:01.770Z,10.40
2017-09-02T03:48:29.295Z,10.40
2017-09-02T03:50:57.428Z,10.40
2017-09-02T03:53:24.979Z,10.40
2017-09-02T03:55:52.517Z,10.40
2017-09-02T03:58:20.075Z,10.40
2017-09-02T04:00:47.619Z,10.40
2017-09-02T04:03:15.180Z,10.40
2017-09-02T04:05:42.759Z,10.40
2017-09-02T04:08:10.298Z,10.40
2017-09-02T04:10:37.858Z,10.40
2017-09-02T04:13:05.445Z,10.30
2017-09-02T04:15:32.989Z,10.30
2017-09-02T04:18:00.530Z,10.30
2017-09-02T04:20:28.504Z,10.30
2017-09-02T04:22:56.055Z,10.40
2017-09-02T04:25:23.573Z,10.50
2017-09-02T04:27:51.128Z,10.40
2017-09-02T04:30:18.666Z,10.40
2017-09-02T04:32:46.210Z,10.40
2017-09-02T04:35:13.769Z,10.30
2017-09-02T04:37:41.312Z,10.40
2017-09-02T04:40:08.844Z,10.40
2017-09-02T04:42:36.415Z,10.50
2017-09-02T04:45:04.010Z,10.50
2017-09-02T04:47:31.539Z,10.50
2017-09-02T04:49:59.159Z,10.60
2017-09-02T04:52:26.753Z,10.70
2017-09-02T04:54:54.325Z,10.60
2017-09-02T04:57:21.995Z,10.60
2017-09-02T04:59:49.543Z,10.70
2017-09-02T05:02:17.113Z,10.80
2017-09-02T05:04:44.677Z,10.90
2017-09-02T05:07:12.234Z,10.90
2017-09-02T05:09:39.772Z,11.00
2017-09-02T05:12:07.598Z,11.00
2017-09-02T05:14:35.147Z,11.00
2017-09-02T05:17:02.706Z,11.10
2017-09-02T05:19:30.274Z,11.10
2017-09-02T05:21:57.818Z,11.20
2017-09-02T05:24:25.369Z,11.10
2017-09-02T05:26:52.904Z,11.10
2017-09-02T05:29:20.734Z,11.10
2017-09-02T05:31:48.588Z,11.10
2017-09-02T05:34:16.155Z,11.10
2017-09-02T05:36:44.484Z,11.10
2017-09-02T05:39:12.035Z,11.10
2017-09-02T05:41:39.599Z,11.20
2017-09-02T05:44:07.124Z,11.20
2017-09-02T05:46:35.062Z,11.30
2017-09-02T05:49:02.632Z,11.40
2017-09-02T05:51:30.171Z,11.50
2017-09-02T05:53:57.724Z,11.50
2017-09-02T05:56:25.269Z,11.60
2017-09-02T05:58:52.833Z,11.70
2017-09-02T06:01:20.374Z,11.70
2017-09-02T06:03:48.293Z,11.80
2017-09-02T06:06:15.863Z,11.80
2017-09-02T06:08:43.414Z,11.70
2017-09-02T06:11:10.994Z,11.80
2017-09-02T06:13:38.546Z,11.80
2017-09-02T06:16:06.099Z,11.70
2017-09-02T06:18:33.653Z,11.80
2017-09-02T06:21:01.223Z,11.80
2017-09-02T06:23:28.834Z,11.90
2017-09-02T06:25:56.393Z,12.00
2017-09-02T06:28:24.218Z,12.20
2017-09-02T06:30:51.821Z,12.20
2017-09-02T06:33:19.374Z,12.20
2017-09-02T06:35:46.925Z,12.30
2017-09-02T06:38:14.467Z,12.30
2017-09-02T06:40:42.299Z,12.30
2017-09-02T06:43:09.844Z,12.20
2017-09-02T06:45:37.386Z,12.10
2017-09-02T06:48:04.969Z,12.20
2017-09-02T06:50:32.538Z,12.30
2017-09-02T06:53:00.105Z,12.20
2017-09-02T06:55:27.650Z,12.30
2017-09-02T06:57:55.508Z,12.30
2017-09-02T07:00:23.053Z,12.30
2017-09-02T07:02:50.594Z,12.40
2017-09-02T07:05:18.155Z,12.40
2017-09-02T07:07:45.718Z,12.30
2017-09-02T07:10:13.311Z,12.40
2017-09-02T07:12:40.922Z,12.20
2017-09-02T07:15:08.950Z,12.30
2017-09-02T07:17:38.278Z,12.30
2017-09-02T07:20:05.821Z,12.50
2017-09-02T07:22:33.430Z,12.40
2017-09-02T07:25:01.003Z,12.50
2017-09-02T07:27:28.679Z,12.40
2017-09-02T07:29:56.547Z,12.30
2017-09-02T07:32:24.549Z,12.40
2017-09-02T07:34:52.257Z,12.40
2017-09-02T07:37:19.915Z,12.30
2017-09-02T07:39:47.627Z,12.20
2017-09-02T07:42:16.011Z,12.20
2017-09-02T07:44:43.693Z,12.20
2017-09-02T07:47:11.314Z,12.20
2017-09-02T07:49:39.786Z,12.30
2017-09-02T07:52:07.632Z,12.50
2017-09-02T07:54:35.523Z,12.60
2017-09-02T07:57:03.268Z,12.70
2017-09-02T07:59:31.360Z,12.80
2017-09-02T08:01:59.113Z,12.90
2017-09-02T08:04:26.923Z,13.00
2017-09-02T08:06:55.113Z,13.10
2017-09-02T08:09:22.815Z,13.20
2017-09-02T08:11:50.491Z,13.30
2017-09-02T08:14:18.148Z,13.40
2017-09-02T08:16:46.147Z,13.50
2017-09-02T08:19:14.722Z,13.60
2017-09-02T08:21:46.230Z,13.80
2017-09-02T08:24:14.419Z,13.80
2017-09-02T08:26:44.423Z,13.70
2017-09-02T08:29:13.144Z,14.00
2017-09-02T08:31:42.387Z,14.10
2017-09-02T08:34:10.182Z,14.30
2017-09-02T08:36:37.909Z,14.20
2017-09-02T08:39:05.600Z,14.30
2017-09-02T08:41:33.544Z,14.20
2017-09-02T08:44:01.214Z,14.30
2017-09-02T08:46:29.067Z,14.40
2017-09-02T08:48:57.033Z,14.20
2017-09-02T08:51:24.792Z,14.20
2017-09-02T08:53:52.545Z,14.30
2017-09-02T08:56:20.207Z,14.20
2017-09-02T08:58:48.389Z,14.30
2017-09-02T09:01:16.464Z,14.40
2017-09-02T09:03:44.325Z,14.30
2017-09-02T09:06:12.094Z,14.20
2017-09-02T09:08:39.835Z,14.00
2017-09-02T09:11:08.325Z,14.10
2017-09-02T09:13:36.113Z,14.10
2017-09-02T09:16:04.022Z,14.10
2017-09-02T09:18:32.001Z,14.30
2017-09-02T09:20:59.768Z,14.40
2017-09-02T09:23:27.549Z,14.70
2017-09-02T09:25:55.381Z,14.70
2017-09-02T09:28:23.804Z,14.90
2017-09-02T09:30:52.382Z,15.00
2017-09-02T09:33:20.863Z,15.00
2017-09-02T09:35:48.565Z,15.10
2017-09-02T09:38:16.612Z,15.00
2017-09-02T09:40:44.262Z,15.20
2017-09-02T09:43:12.113Z,15.30
2017-09-02T09:45:40.188Z,15.30
2017-09-02T09:48:08.072Z,15.20
2017-09-02T09:50:35.715Z,15.10
2017-09-02T09:53:03.345Z,15.30
2017-09-02T09:55:31.034Z,15.30
2017-09-02T09:57:59.817Z,15.10
2017-09-02T10:00:28.300Z,14.80
2017-09-02T10:02:55.905Z,14.80
2017-09-02T10:05:23.615Z,14.90
2017-09-02T10:07:52.541Z,15.00
2017-09-02T10:10:20.270Z,15.10
2017-09-02T10:12:49.068Z,15.40
2017-09-02T10:15:17.142Z,15.60
2017-09-02T10:17:44.908Z,15.90
2017-09-02T10:20:13.528Z,16.20
2017-09-02T10:22:42.140Z,16.10
2017-09-02T10:25:09.808Z,16.20
2017-09-02T10:27:37.471Z,16.20
2017-09-02T10:30:05.582Z,16.20
2017-09-02T10:32:34.212Z,16.40
2017-09-02T10:35:01.805Z,16.60
2017-09-02T10:37:29.465Z,16.70
2017-09-02T10:39:57.173Z,16.70
2017-09-02T10:42:24.873Z,16.70
2017-09-02T10:44:52.594Z,16.80
2017-09-02T10:47:20.326Z,16.80
2017-09-02T10:49:48.492Z,16.50
2017-09-02T10:52:16.108Z,16.60
2017-09-02T10:54:43.858Z,16.80
2017-09-02T10:57:11.686Z,17.10
2017-09-02T10:59:40.105Z,17.00
2017-09-02T11:02:07.817Z,16.90
2017-09-02T11:04:35.373Z,17.10
2017-09-02T11:07:02.934Z,17.30
2017-09-02T11:09:30.487Z,17.70
2017-09-02T11:11:58.032Z,17.80
2017-09-02T11:14:25.602Z,18.20
2017-09-02T11:16:53.151Z,18.40
2017-09-02T11:19:20.806Z,18.80
2017-09-02T11:21:49.097Z,18.80
2017-09-02T11:24:16.658Z,18.90
2017-09-02T11:26:44.218Z,18.80
2017-09-02T11:29:11.881Z,18.40
2017-09-02T11:31:39.559Z,18.00
2017-09-02T11:34:07.994Z,17.40
2017-09-02T11:36:35.681Z,17.30
2017-09-02T11:39:03.446Z,16.70
2017-09-02T11:41:31.551Z,16.40
2017-09-02T11:43:59.316Z,16.00
2017-09-02T11:46:27.060Z,15.60
2017-09-02T11:48:54.824Z,15.50
2017-09-02T11:51:23.336Z,15.30
2017-09-02T11:53:51.086Z,15.40
2017-09-02T11:56:18.955Z,15.50
2017-09-02T11:58:46.680Z,15.50
2017-09-02T12:01:14.371Z,15.60
2017-09-02T12:03:42.124Z,15.60
2017-09-02T12:06:09.726Z,15.60
2017-09-02T12:08:37.283Z,15.80
2017-09-02T12:11:04.898Z,15.80
2017-09-02T12:13:32.446Z,16.00
2017-09-02T12:16:00.010Z,16.20
2017-09-02T12:18:27.574Z,16.50
2017-09-02T12:20:55.156Z,16.70
2017-09-02T12:23:22.746Z,16.90
2017-09-02T12:25:50.310Z,17.10
2017-09-02T12:28:17.845Z,17.40
2017-09-02T12:30:45.415Z,17.70
2017-09-02T12:33:13.244Z,18.00
2017-09-02T12:35:40.786Z,18.50
2017-09-02T12:38:08.346Z,18.10
2017-09-02T12:40:35.899Z,17.20
2017-09-02T12:43:03.438Z,16.40
2017-09-02T12:45:31.348Z,15.90
2017-09-02T12:47:58.892Z,15.50
2017-09-02T12:50:26.431Z,15.10
2017-09-02T12:52:53.982Z,14.90
2017-09-02T12:55:21.523Z,14.50
2017-09-02T12:57:49.099Z,14.10
2017-09-02T13:00:16.645Z,14.10
2017-09-02T13:02:44.214Z,14.40
2017-09-02T13:05:11.803Z,14.60
2017-09-02T13:07:39.376Z,14.70
2017-09-02T13:10:06.948Z,14.80
2017-09-02T13:12:34.488Z,14.90
2017-09-02T13:15:02.049Z,15.30
2017-09-02T13:17:29.613Z,15.20
2017-09-02T13:19:57.561Z,15.40
2017-09-02T13:22:25.102Z,15.60
2017-09-02T13:24:53.044Z,15.70
2017-09-02T13:27:20.597Z,16.10
2017-09-02T13:29:48.202Z,16.50
2017-09-02T13:32:15.769Z,16.60
2017-09-02T13:34:43.324Z,17.30
2017-09-02T13:37:11.173Z,18.10
2017-09-02T13:39:38.812Z,18.40
2017-09-02T13:42:06.405Z,19.10
2017-09-02T13:44:33.988Z,19.90
2017-09-02T13:47:01.833Z,20.40
2017-09-02T13:49:29.413Z,20.50
2017-09-02T13:51:57.017Z,20.30
2017-09-02T13:54:24.875Z,19.50
2017-09-02T13:56:52.439Z,19.20
2017-09-02T13:59:19.977Z,18.90
2017-09-02T14:01:47.549Z,18.40
2017-09-02T14:04:15.134Z,18.00
2017-09-02T14:06:42.788Z,17.70
2017-09-02T14:09:10.345Z,17.10
2017-09-02T14:11:38.164Z,16.70
2017-09-02T14:14:05.707Z,16.30
2017-09-02T14:16:33.257Z,15.90
2017-09-02T14:19:00.820Z,15.60
2017-09-02T14:21:28.359Z,15.30
2017-09-02T14:23:56.685Z,15.10
2017-09-02T14:26:24.239Z,15.00
2017-09-02T14:28:51.806Z,15.00
2017-09-02T14:31:19.366Z,14.80
2017-09-02T14:33:46.913Z,14.80
2017-09-02T14:36:14.478Z,14.80
2017-09-02T14:38:42.023Z,14.60
2017-09-02T14:41:09.605Z,14.60
2017-09-02T14:43:37.169Z,14.60
2017-09-02T14:46:05.120Z,14.50
2017-09-02T14:48:32.662Z,14.50
2017-09-02T14:51:00.232Z,14.40
2017-09-02T14:53:27.818Z,14.30
2017-09-02T14:55:55.378Z,14.40
2017-09-02T14:58:22.945Z,14.30
2017-09-02T15:00:50.547Z,14.30
2017-09-02T15:03:18.117Z,14.20
2017-09-02T15:05:45.689Z,14.30
2017-09-02T15:08:13.242Z,14.30
2017-09-02T15:10:40.809Z,14.50
2017-09-02T15:13:08.353Z,14.50
2017-09-02T15:15:35.914Z,14.60
2017-09-02T15:18:03.468Z,14.70
2017-09-02T15:20:31.390Z,14.70
2017-09-02T15:22:58.950Z,14.80
2017-09-02T15:25:26.511Z,15.00
2017-09-02T15:27:55.172Z,15.10
2017-09-02T15:30:22.750Z,14.90
2017-09-02T15:32:50.575Z,14.80
2017-09-02T15:35:18.152Z,14.80
2017-09-02T15:37:45.725Z,14.70
2017-09-02T15:40:13.334Z,14.80
2017-09-02T15:42:41.704Z,15.90
2017-09-02T15:45:10.019Z,15.70
2017-09-02T15:47:37.574Z,15.70
2017-09-02T15:50:05.447Z,16.90
2017-09-02T15:52:33.034Z,18.30
2017-09-02T15:55:00.620Z,18.60
2017-09-02T15:57:28.991Z,19.60
2017-09-02T15:59:56.577Z,19.60
2017-09-02T16:02:24.165Z,19.60
2017-09-02T16:04:51.723Z,19.50
2017-09-02T16:07:19.591Z,19.10
2017-09-02T16:09:47.171Z,18.80
2017-09-02T16:12:14.779Z,18.40
2017-09-02T16:14:42.381Z,18.00
2017-09-02T16:17:10.044Z,17.60
2017-09-02T16:19:37.624Z,17.40
2017-09-02T16:22:05.368Z,16.90
2017-09-02T16:24:32.993Z,16.60
2017-09-02T16:27:00.815Z,16.20
2017-09-02T16:29:28.387Z,16.00
2017-09-02T16:31:56.553Z,15.70
2017-09-02T16:34:24.113Z,15.40
2017-09-02T16:36:51.662Z,15.00
2017-09-02T16:39:19.509Z,14.70
2017-09-02T16:41:47.054Z,14.60
2017-09-02T16:44:14.615Z,14.40
2017-09-02T16:46:42.194Z,14.30
2017-09-02T16:49:09.753Z,14.20
2017-09-02T16:51:37.338Z,14.10
2017-09-02T16:54:04.887Z,14.00
2017-09-02T16:56:32.741Z,13.90
2017-09-02T16:59:00.324Z,13.80
2017-09-02T17:01:28.771Z,13.70
2017-09-02T17:03:56.319Z,13.70
2017-09-02T17:06:23.863Z,13.70
2017-09-02T17:08:51.484Z,13.60
2017-09-02T17:11:19.035Z,13.50
2017-09-02T17:13:46.932Z,13.40
2017-09-02T17:16:14.496Z,13.40
2017-09-02T17:18:42.066Z,13.20
2017-09-02T17:21:09.633Z,13.10
2017-09-02T17:23:37.187Z,13.10
2017-09-02T17:26:05.026Z,12.90
2017-09-02T17:28:32.596Z,12.90
2017-09-02T17:31:00.157Z,12.80
2017-09-02T17:33:28.505Z,12.80
2017-09-02T17:35:56.042Z,12.80
2017-09-02T17:38:23.894Z,12.70
2017-09-02T17:40:51.465Z,12.70
2017-09-02T17:43:19.047Z,12.70
2017-09-02T17:45:46.620Z,12.60
2017-09-02T17:48:14.166Z,12.70
2017-09-02T17:50:41.729Z,12.60
2017-09-02T17:53:09.280Z,12.60
2017-09-02T17:55:37.151Z,12.50
2017-09-02T17:58:04.721Z,12.40
2017-09-02T18:00:32.323Z,12.40
2017-09-02T18:02:59.905Z,12.40
2017-09-02T18:05:27.454Z,12.40
2017-09-02T18:07:55.028Z,12.30
2017-09-02T18:10:22.637Z,12.20
2017-09-02T18:12:50.222Z,12.10
2017-09-02T18:15:17.978Z,12.00
2017-09-02T18:17:45.564Z,12.00
2017-09-02T18:20:13.368Z,11.90
2017-09-02T18:22:41.734Z,12.00
2017-09-02T18:25:09.346Z,12.00
2017-09-02T18:27:36.910Z,12.00
2017-09-02T18:30:04.755Z,11.90
2017-09-02T18:32:32.351Z,11.90
2017-09-02T18:35:00.494Z,11.80
2017-09-02T18:37:28.196Z,11.90
2017-09-02T18:39:55.784Z,11.90
2017-09-02T18:42:23.387Z,11.80
2017-09-02T18:44:50.976Z,11.70
2017-09-02T18:47:18.584Z,11.60
2017-09-02T18:49:46.165Z,11.60
2017-09-02T18:52:13.781Z,11.60
2017-09-02T18:54:41.640Z,11.60
2017-09-02T18:57:09.256Z,11.60
2017-09-02T18:59:36.861Z,11.60
2017-09-02T19:02:04.422Z,11.60
2017-09-02T19:04:32.014Z,11.60
2017-09-02T19:06:59.629Z,11.60
2017-09-02T19:09:27.173Z,11.60
2017-09-02T19:11:55.054Z,11.60
2017-09-02T19:14:22.605Z,11.60
2017-09-02T19:16:50.143Z,11.60
2017-09-02T19:19:17.761Z,11.50
2017-09-02T19:21:45.299Z,11.50
2017-09-02T19:24:12.902Z,11.50
2017-09-02T19:26:40.452Z,11.50
2017-09-02T19:29:08.041Z,11.50
2017-09-02T19:31:35.612Z,11.70
2017-09-02T19:34:03.202Z,11.70
2017-09-02T19:36:30.893Z,11.80
2017-09-02T19:38:59.223Z,11.80
2017-09-02T19:41:27.237Z,11.80
2017-09-02T19:43:54.928Z,11.80
2017-09-02T19:46:22.528Z,11.90
2017-09-02T19:48:50.088Z,11.90
2017-09-02T19:51:17.764Z,11.90
2017-09-02T19:53:45.347Z,11.90
2017-09-02T19:56:12.907Z,11.70
2017-09-02T19:58:40.497Z,11.70
2017-09-02T20:01:08.083Z,11.80
2017-09-02T20:03:35.685Z,11.80
2017-09-02T20:06:04.077Z,11.80
2017-09-02T20:08:31.721Z,11.80
2017-09-02T20:10:59.621Z,11.90
2017-09-02T20:13:27.217Z,11.90
2017-09-02T20:15:54.803Z,11.90
2017-09-02T20:18:22.434Z,11.90
2017-09-02T20:20:50.900Z,11.90
2017-09-02T20:23:20.095Z,12.00
2017-09-02T20:25:47.634Z,11.90
2017-09-02T20:28:15.252Z,11.80
2017-09-02T20:30:42.928Z,11.80
2017-09-02T20:33:10.830Z,11.70
2017-09-02T20:35:38.443Z,11.80
2017-09-02T20:38:06.070Z,11.80
2017-09-02T20:40:33.692Z,11.90
2017-09-02T20:43:01.265Z,11.90
2017-09-02T20:45:28.854Z,11.90
2017-09-02T20:47:57.365Z,12.00
2017-09-02T20:50:25.969Z,12.10
2017-09-02T20:52:53.555Z,12.10
2017-09-02T20:55:21.144Z,12.10
2017-09-02T20:57:48.723Z,12.10
2017-09-02T21:00:16.364Z,12.10
2017-09-02T21:02:43.944Z,12.10
2017-09-02T21:05:12.196Z,12.10
2017-09-02T21:07:40.992Z,12.10
2017-09-02T21:10:08.557Z,12.10
2017-09-02T21:12:36.122Z,12.10
2017-09-02T21:15:03.743Z,12.10
2017-09-02T21:17:31.307Z,12.00
2017-09-02T21:19:59.780Z,12.00
2017-09-02T21:22:27.376Z,11.90
2017-09-02T21:24:55.026Z,11.80
2017-09-02T21:27:22.615Z,11.70
2017-09-02T21:29:50.230Z,11.60
2017-09-02T21:32:17.826Z,11.60
2017-09-02T21:34:45.438Z,11.60
2017-09-02T21:37:13.923Z,11.50
2017-09-02T21:39:42.274Z,11.50
2017-09-02T21:42:09.992Z,11.50
2017-09-02T21:44:37.604Z,11.50
2017-09-02T21:47:05.971Z,11.60
2017-09-02T21:49:34.753Z,11.50
2017-09-02T21:52:03.098Z,11.50
2017-09-02T21:54:31.456Z,11.40
2017-09-02T21:56:59.125Z,11.40
2017-09-02T21:59:26.695Z,11.50
2017-09-02T22:01:54.573Z,11.40
2017-09-02T22:04:22.841Z,11.30
2017-09-02T22:06:51.162Z,11.20
2017-09-02T22:09:18.751Z,11.30
2017-09-02T22:11:46.475Z,11.20
2017-09-02T22:14:14.100Z,11.20
2017-09-02T22:16:41.659Z,11.10
2017-09-02T22:19:09.249Z,11.10
2017-09-02T22:21:37.591Z,11.10
2017-09-02T22:24:05.157Z,11.10
2017-09-02T22:26:33.531Z,11.30
2017-09-02T22:29:01.137Z,11.10
2017-09-02T22:31:28.728Z,10.90
2017-09-02T22:33:56.290Z,10.90
2017-09-02T22:36:24.228Z,10.80
2017-09-02T22:38:51.772Z,10.70
2017-09-02T22:41:19.352Z,10.70
2017-09-02T22:43:47.700Z,10.70
2017-09-02T22:46:15.270Z,10.70
2017-09-02T22:48:42.869Z,10.70
2017-09-02T22:51:10.421Z,10.60
2017-09-02T22:53:38.556Z,10.60
2017-09-02T22:56:06.139Z,10.50
2017-09-02T22:58:33.742Z,10.50
2017-09-02T23:01:01.362Z,10.50
2017-09-02T23:03:28.952Z,10.50
2017-09-02T23:05:57.549Z,10.50
2017-09-02T23:08:25.123Z,10.50
2017-09-02T23:10:52.994Z,10.40
2017-09-02T23:13:20.624Z,10.40
2017-09-02T23:15:48.186Z,10.40
2017-09-02T23:18:15.761Z,10.40
2017-09-02T23:20:43.348Z,10.40
2017-09-02T23:23:10.941Z,10.30
2017-09-02T23:25:38.494Z,10.30
2017-09-02T23:28:06.055Z,10.20
2017-09-02T23:30:33.634Z,10.10
2017-09-02T23:33:01.188Z,10.00
2017-09-02T23:35:28.746Z,10.00
2017-09-02T23:37:56.325Z,9.90
2017-09-02T23:40:23.886Z,9.90
2017-09-02T23:42:51.464Z,9.80
2017-09-02T23:45:19.017Z,9.70
2017-09-02T23:47:46.576Z,9.70
2017-09-02T23:50:14.580Z,9.60
2017-09-02T23:52:42.110Z,9.70
2017-09-02T23:55:09.643Z,9.60
2017-09-02T23:57:37.216Z,9.60
